createdAt,value
2022-11-14T00:02:10.843Z,8.98
2022-11-14T00:04:56.734Z,8.80
2022-11-14T00:07:42.702Z,7.15
2022-11-14T00:10:28.663Z,8.48
2022-11-14T00:13:15.212Z,9.00
2022-11-14T00:16:01.225Z,7.88
2022-11-14T00:18:47.243Z,8.27
2022-11-14T00:21:33.163Z,9.05
2022-11-14T00:24:19.314Z,7.78
2022-11-14T00:27:05.088Z,8.15
2022-11-14T00:29:50.880Z,7.10
2022-11-14T00:32:36.755Z,7.70
2022-11-14T00:35:22.790Z,7.47
2022-11-14T00:38:08.554Z,9.77
2022-11-14T00:40:54.450Z,6.30
2022-11-14T00:43:40.321Z,8.07
2022-11-14T00:46:26.332Z,9.65
2022-11-14T00:49:12.284Z,7.72
2022-11-14T00:51:58.225Z,7.88
2022-11-14T00:54:44.304Z,7.20
2022-11-14T00:57:30.466Z,8.85
2022-11-14T01:00:16.383Z,6.55
2022-11-14T01:03:02.289Z,7.85
2022-11-14T01:05:50.264Z,8.43
2022-11-14T01:08:36.186Z,8.65
2022-11-14T01:11:22.638Z,8.98
2022-11-14T01:14:09.005Z,8.05
2022-11-14T01:16:54.933Z,7.50
2022-11-14T01:19:41.464Z,8.60
2022-11-14T01:22:29.227Z,8.90
2022-11-14T01:25:15.267Z,7.15
2022-11-14T01:28:01.376Z,7.35
2022-11-14T01:30:47.275Z,9.32
2022-11-14T01:33:33.225Z,9.05
2022-11-14T01:36:20.237Z,8.30
2022-11-14T01:39:06.278Z,8.52
2022-11-14T01:41:51.895Z,8.75
2022-11-14T01:44:52.674Z,7.63
2022-11-14T01:47:39.065Z,9.63
2022-11-14T01:50:24.787Z,10.90
2022-11-14T01:53:10.920Z,6.88
2022-11-14T01:56:00.766Z,10.05
2022-11-14T01:58:52.316Z,8.23
2022-11-14T02:01:44.807Z,7.18
2022-11-14T02:04:37.986Z,8.48
2022-11-14T02:07:27.708Z,10.77
2022-11-14T02:10:20.665Z,9.13
2022-11-14T02:13:07.135Z,7.50
2022-11-14T02:15:52.815Z,9.40
2022-11-14T02:18:38.865Z,8.23
2022-11-14T02:21:24.655Z,10.38
2022-11-14T02:24:12.124Z,6.60
2022-11-14T02:26:57.936Z,9.40
2022-11-14T02:29:43.625Z,7.68
2022-11-14T02:32:32.673Z,7.40
2022-11-14T02:35:31.364Z,7.35
2022-11-14T02:38:17.395Z,9.38
2022-11-14T02:41:03.577Z,8.35
2022-11-14T02:43:49.287Z,9.05
2022-11-14T02:46:35.905Z,8.77
2022-11-14T02:49:21.776Z,7.05
2022-11-14T02:52:07.672Z,7.45
2022-11-14T02:54:54.745Z,7.72
2022-11-14T02:57:40.454Z,7.45
2022-11-14T03:00:26.823Z,10.30
2022-11-14T03:03:14.118Z,7.97
2022-11-14T03:06:04.176Z,6.28
2022-11-14T03:08:49.865Z,7.35
2022-11-14T03:11:35.964Z,7.07
2022-11-14T03:14:22.015Z,7.13
2022-11-14T03:17:07.964Z,8.20
2022-11-14T03:19:53.786Z,6.68
2022-11-14T03:22:39.974Z,8.50
2022-11-14T03:25:25.877Z,8.23
2022-11-14T03:28:11.915Z,7.38
2022-11-14T03:30:57.983Z,8.52
2022-11-14T03:33:43.704Z,8.68
2022-11-14T03:36:29.384Z,6.57
2022-11-14T03:39:15.382Z,8.13
2022-11-14T03:42:01.018Z,7.20
2022-11-14T03:44:47.121Z,7.50
2022-11-14T03:47:33.074Z,6.88
2022-11-14T03:50:19.114Z,7.63
2022-11-14T03:53:05.470Z,6.63
2022-11-14T03:55:52.247Z,7.57
2022-11-14T03:58:38.317Z,7.60
2022-11-14T04:01:24.256Z,8.25
2022-11-14T04:04:12.587Z,5.72
2022-11-14T04:06:58.718Z,8.10
2022-11-14T04:09:45.086Z,6.85
2022-11-14T04:12:30.755Z,7.15
2022-11-14T04:15:17.657Z,7.38
2022-11-14T04:18:03.806Z,6.78
2022-11-14T04:20:49.457Z,6.75
2022-11-14T04:23:35.544Z,6.35
2022-11-14T04:26:22.127Z,7.93
2022-11-14T04:29:07.876Z,7.05
2022-11-14T04:31:53.614Z,8.32
2022-11-14T04:34:39.567Z,7.65
2022-11-14T04:37:25.698Z,9.30
2022-11-14T04:40:11.737Z,9.18
2022-11-14T04:42:57.686Z,7.90
2022-11-14T04:45:43.735Z,7.28
2022-11-14T04:48:29.775Z,9.77
2022-11-14T04:51:15.666Z,9.55
2022-11-14T04:54:01.715Z,8.68
2022-11-14T04:56:47.746Z,7.30
2022-11-14T04:59:33.775Z,5.70
2022-11-14T05:02:19.898Z,8.50
2022-11-14T05:05:06.254Z,5.93
2022-11-14T05:07:52.104Z,9.80
2022-11-14T05:10:38.038Z,7.22
2022-11-14T05:13:24.055Z,6.07
2022-11-14T05:16:10.144Z,7.68
2022-11-14T05:18:55.924Z,7.28
2022-11-14T05:21:41.865Z,6.10
2022-11-14T05:24:28.733Z,7.20
2022-11-14T05:27:14.737Z,5.93
2022-11-14T05:30:00.724Z,8.73
2022-11-14T05:32:46.836Z,7.05
2022-11-14T05:35:32.684Z,6.97
2022-11-14T05:38:18.625Z,7.72
2022-11-14T05:41:09.646Z,8.00
2022-11-14T05:43:55.524Z,11.70
2022-11-14T05:46:41.226Z,7.40
2022-11-14T05:49:27.017Z,8.05
2022-11-14T05:52:13.055Z,7.82
2022-11-14T05:54:59.032Z,8.85
2022-11-14T05:57:44.636Z,8.75
2022-11-14T06:00:33.395Z,6.80
2022-11-14T06:03:22.184Z,6.82
2022-11-14T06:06:10.126Z,8.07
2022-11-14T06:08:55.944Z,8.00
2022-11-14T06:11:41.848Z,9.25
2022-11-14T06:14:27.706Z,6.53
2022-11-14T06:17:13.744Z,7.22
2022-11-14T06:19:59.625Z,7.25
2022-11-14T06:22:45.434Z,7.07
2022-11-14T06:25:31.476Z,9.02
2022-11-14T06:28:17.414Z,9.30
2022-11-14T06:31:04.815Z,7.95
2022-11-14T06:33:51.045Z,8.52
2022-11-14T06:36:36.765Z,8.15
2022-11-14T06:39:22.714Z,7.65
2022-11-14T06:42:08.875Z,9.82
2022-11-14T06:44:54.759Z,8.63
2022-11-14T06:47:40.808Z,8.38
2022-11-14T06:50:26.588Z,11.43
2022-11-14T06:53:12.559Z,8.57
2022-11-14T06:56:01.357Z,7.22
2022-11-14T06:58:49.387Z,7.50
2022-11-14T07:01:35.458Z,8.25
2022-11-14T07:04:21.402Z,7.55
2022-11-14T07:07:07.431Z,7.68
2022-11-14T07:09:54.549Z,8.13
2022-11-14T07:12:40.231Z,8.23
2022-11-14T07:15:26.352Z,10.80
2022-11-14T07:18:12.000Z,8.73
2022-11-14T07:20:59.587Z,8.63
2022-11-14T07:23:45.610Z,8.40
2022-11-14T07:26:31.499Z,9.00
2022-11-14T07:29:17.478Z,9.25
2022-11-14T07:32:03.467Z,7.00
2022-11-14T07:34:49.608Z,9.68
2022-11-14T07:37:35.338Z,6.25
2022-11-14T07:40:21.248Z,9.27
2022-11-14T07:43:07.127Z,9.13
2022-11-14T07:45:53.068Z,8.40
2022-11-14T07:48:38.909Z,9.65
2022-11-14T07:51:24.780Z,8.93
2022-11-14T07:54:12.200Z,7.97
2022-11-14T07:56:57.947Z,12.80
2022-11-14T07:59:44.038Z,7.90
2022-11-14T08:02:29.857Z,9.13
2022-11-14T08:05:16.019Z,8.57
2022-11-14T08:08:02.489Z,8.02
2022-11-14T08:10:48.368Z,10.25
2022-11-14T08:13:34.479Z,9.73
2022-11-14T08:16:20.386Z,9.57
2022-11-14T08:19:06.658Z,8.35
2022-11-14T08:21:52.396Z,10.35
2022-11-14T08:24:38.187Z,8.02
2022-11-14T08:27:24.690Z,7.85
2022-11-14T08:30:11.096Z,7.82
2022-11-14T08:32:57.050Z,10.40
2022-11-14T08:35:43.037Z,10.27
2022-11-14T08:38:29.354Z,9.82
2022-11-14T08:41:15.398Z,10.25
2022-11-14T08:44:01.467Z,9.98
2022-11-14T08:46:47.528Z,9.43
2022-11-14T08:49:33.255Z,7.53
2022-11-14T08:52:19.117Z,10.88
2022-11-14T08:55:05.298Z,11.27
2022-11-14T08:57:53.859Z,7.45
2022-11-14T09:00:39.829Z,10.27
2022-11-14T09:03:25.492Z,9.10
2022-11-14T09:06:11.407Z,8.85
2022-11-14T09:08:57.899Z,8.07
2022-11-14T09:11:43.688Z,10.13
2022-11-14T09:14:29.757Z,9.63
2022-11-14T09:17:15.567Z,8.63
2022-11-14T09:20:01.487Z,9.73
2022-11-14T09:22:47.367Z,7.75
2022-11-14T09:25:33.298Z,8.32
2022-11-14T09:28:19.206Z,12.35
2022-11-14T09:31:11.897Z,8.90
2022-11-14T09:33:57.918Z,12.80
2022-11-14T09:36:44.398Z,9.25
2022-11-14T09:39:30.096Z,16.45
2022-11-14T09:42:22.087Z,9.30
2022-11-14T09:45:16.408Z,11.45
2022-11-14T09:48:09.690Z,8.73
2022-11-14T09:51:09.777Z,10.32
2022-11-14T09:54:07.937Z,14.25
2022-11-14T09:56:54.648Z,12.02
2022-11-14T09:59:40.347Z,16.52
2022-11-14T10:02:41.531Z,15.18
2022-11-14T10:05:57.839Z,14.82
2022-11-14T10:08:55.228Z,14.77
2022-11-14T10:12:03.760Z,14.15
2022-11-14T10:14:55.289Z,16.67
2022-11-14T10:17:46.988Z,11.50
2022-11-14T10:20:52.158Z,14.27
2022-11-14T10:23:37.706Z,11.60
2022-11-14T10:26:31.729Z,11.80
2022-11-14T10:32:22.197Z,12.27
2022-11-14T10:35:18.546Z,13.35
2022-11-14T10:38:07.539Z,10.63
2022-11-14T10:40:58.291Z,14.27
2022-11-14T10:43:49.646Z,11.02
2022-11-14T10:46:43.948Z,10.38
2022-11-14T10:49:36.248Z,11.77
2022-11-14T10:52:48.400Z,13.07
2022-11-14T10:56:05.484Z,10.85
2022-11-14T10:58:51.214Z,14.55
2022-11-14T11:01:57.932Z,11.93
2022-11-14T11:04:45.429Z,9.70
2022-11-14T11:08:02.924Z,11.73
2022-11-14T11:11:34.787Z,8.00
2022-11-14T11:14:20.971Z,9.13
2022-11-14T11:17:12.943Z,7.93
2022-11-14T11:20:26.768Z,9.50
2022-11-14T11:23:12.329Z,7.93
2022-11-14T11:26:08.040Z,8.32
2022-11-14T11:29:11.848Z,7.47
2022-11-14T11:31:59.299Z,8.52
2022-11-14T11:34:45.799Z,11.25
2022-11-14T11:37:37.289Z,8.45
2022-11-14T11:40:29.149Z,9.57
2022-11-14T11:43:42.356Z,8.60
2022-11-14T11:46:47.147Z,10.80
2022-11-14T11:49:53.455Z,11.40
2022-11-14T11:52:52.092Z,8.82
2022-11-14T11:55:56.477Z,8.10
2022-11-14T11:58:48.240Z,10.35
2022-11-14T12:04:33.211Z,12.75
2022-11-14T12:07:31.611Z,11.68
2022-11-14T12:10:27.431Z,10.63
2022-11-14T12:13:34.699Z,10.35
2022-11-14T12:16:58.047Z,11.70
2022-11-14T12:23:22.519Z,13.05
2022-11-14T12:26:17.116Z,10.88
2022-11-14T12:29:11.898Z,10.00
2022-11-14T12:32:07.037Z,10.75
2022-11-14T12:34:53.011Z,12.02
2022-11-14T12:37:45.041Z,12.98
2022-11-14T12:40:41.407Z,12.15
2022-11-14T12:43:37.177Z,10.68
2022-11-14T12:46:23.587Z,9.98
2022-11-14T12:49:37.574Z,12.00
2022-11-14T12:52:44.431Z,8.75
2022-11-14T12:55:30.258Z,12.48
2022-11-14T12:58:26.754Z,9.32
2022-11-14T13:01:38.224Z,13.13
2022-11-14T13:04:42.598Z,12.35
2022-11-14T13:07:49.116Z,9.45
2022-11-14T13:10:40.203Z,7.85
2022-11-14T13:13:44.689Z,10.35
2022-11-14T13:16:51.114Z,10.88
2022-11-14T13:20:04.588Z,11.07
2022-11-14T13:22:50.519Z,8.52
2022-11-14T13:25:36.579Z,9.30
2022-11-14T13:28:59.920Z,10.30
2022-11-14T13:32:10.030Z,9.32
2022-11-14T13:35:30.229Z,14.35
2022-11-14T13:38:50.828Z,9.25
2022-11-14T13:41:47.809Z,8.75
2022-11-14T13:45:27.108Z,11.30
2022-11-14T13:48:50.139Z,12.55
2022-11-14T13:51:46.148Z,11.75
2022-11-14T13:54:56.946Z,10.40
2022-11-14T13:58:34.378Z,8.88
2022-11-14T14:01:29.289Z,13.30
2022-11-14T14:04:42.668Z,11.32
2022-11-14T14:07:31.328Z,12.45
2022-11-14T14:10:49.255Z,8.60
2022-11-14T14:13:55.152Z,10.50
2022-11-14T14:16:51.249Z,12.38
2022-11-14T14:20:00.432Z,10.23
2022-11-14T14:23:12.549Z,8.70
2022-11-14T14:26:20.428Z,12.07
2022-11-14T14:29:24.369Z,13.55
2022-11-14T14:32:14.680Z,8.90
2022-11-14T14:35:13.739Z,6.82
2022-11-14T14:37:59.991Z,10.20
2022-11-14T14:40:47.678Z,6.25
2022-11-14T14:43:34.998Z,8.70
2022-11-14T14:46:32.888Z,9.80
2022-11-14T14:49:29.280Z,7.93
2022-11-14T14:58:37.554Z,10.25
2022-11-14T15:01:33.324Z,8.95
2022-11-14T15:04:20.329Z,12.25
2022-11-14T15:07:06.504Z,13.00
2022-11-14T15:10:01.978Z,6.88
2022-11-14T15:12:48.308Z,8.65
2022-11-14T15:15:34.778Z,10.10
2022-11-14T15:18:26.347Z,17.90
2022-11-14T15:21:24.854Z,20.83
2022-11-14T15:27:20.579Z,17.15
2022-11-14T15:30:19.938Z,12.10
2022-11-14T15:33:25.918Z,10.15
2022-11-14T15:36:14.899Z,11.18
2022-11-14T15:39:01.061Z,9.25
2022-11-14T15:41:47.059Z,9.25
2022-11-14T15:44:35.810Z,9.10
2022-11-14T15:48:00.427Z,8.85
2022-11-14T15:50:50.688Z,8.25
2022-11-14T15:53:37.828Z,11.57
2022-11-14T15:56:23.778Z,10.73
2022-11-14T15:59:12.020Z,11.57
2022-11-14T16:02:25.209Z,8.55
2022-11-14T16:05:14.440Z,9.63
2022-11-14T16:08:00.509Z,10.10
2022-11-14T16:10:46.452Z,8.70
2022-11-14T16:13:32.665Z,6.60
2022-11-14T16:16:18.942Z,5.63
2022-11-14T16:19:05.849Z,6.80
2022-11-14T16:21:51.758Z,7.65
2022-11-14T16:27:37.229Z,10.40
2022-11-14T16:30:25.291Z,10.05
2022-11-14T16:33:11.150Z,6.57
2022-11-14T16:35:56.760Z,8.07
2022-11-14T16:38:42.750Z,4.95
2022-11-14T16:41:29.264Z,8.82
2022-11-14T16:44:19.526Z,10.85
2022-11-14T16:47:05.467Z,7.25
2022-11-14T16:49:51.341Z,10.38
2022-11-14T16:52:39.444Z,7.43
2022-11-14T16:55:25.401Z,8.27
2022-11-14T16:58:11.419Z,6.55
2022-11-14T17:00:57.420Z,6.47
2022-11-14T17:03:43.590Z,7.00
2022-11-14T17:06:30.138Z,6.93
2022-11-14T17:09:15.968Z,9.65
2022-11-14T17:12:01.929Z,9.98
2022-11-14T17:14:47.533Z,5.10
2022-11-14T17:17:33.390Z,7.88
2022-11-14T17:20:19.242Z,11.15
2022-11-14T17:23:05.297Z,11.68
2022-11-14T17:25:51.269Z,13.45
2022-11-14T17:28:38.650Z,11.13
2022-11-14T17:31:24.752Z,14.57
2022-11-14T17:34:10.990Z,10.57
2022-11-14T17:36:57.069Z,13.60
2022-11-14T17:39:42.789Z,15.27
2022-11-14T17:42:29.060Z,10.93
2022-11-14T17:45:14.733Z,11.50
2022-11-14T17:48:00.766Z,8.30
2022-11-14T17:50:46.581Z,12.23
2022-11-14T17:53:34.543Z,10.52
2022-11-14T17:56:23.221Z,12.60
2022-11-14T18:02:24.359Z,13.00
2022-11-14T18:05:10.352Z,16.92
2022-11-14T18:07:56.216Z,15.90
2022-11-14T18:10:42.220Z,15.52
2022-11-14T18:13:28.468Z,17.75
2022-11-14T18:16:19.728Z,14.98
2022-11-14T18:19:05.822Z,19.83
2022-11-14T18:21:53.990Z,26.08
2022-11-14T18:24:43.439Z,20.25
2022-11-14T18:27:29.078Z,17.95
2022-11-14T18:30:39.951Z,15.15
2022-11-14T18:33:21.718Z,12.98
2022-11-14T18:36:16.919Z,15.38
2022-11-14T18:39:04.478Z,15.80
2022-11-14T18:41:50.514Z,15.68
2022-11-14T18:44:37.051Z,16.90
2022-11-14T18:47:23.364Z,17.83
2022-11-14T18:50:09.417Z,16.25
2022-11-14T18:52:55.332Z,13.20
2022-11-14T18:55:41.753Z,12.70
2022-11-14T18:58:27.524Z,11.73
2022-11-14T19:01:24.362Z,13.13
2022-11-14T19:04:24.016Z,15.57
2022-11-14T19:07:16.145Z,19.50
2022-11-14T19:10:08.672Z,17.00
2022-11-14T19:12:54.811Z,17.02
2022-11-14T19:15:46.780Z,13.15
2022-11-14T19:18:33.344Z,14.00
2022-11-14T19:21:19.615Z,12.57
2022-11-14T19:24:09.095Z,12.48
2022-11-14T19:27:35.165Z,12.65
2022-11-14T19:30:26.922Z,14.80
2022-11-14T19:33:43.225Z,11.40
2022-11-14T19:39:58.395Z,19.67
2022-11-14T19:42:44.398Z,17.65
2022-11-14T19:46:08.045Z,19.35
2022-11-14T19:48:58.824Z,19.27
2022-11-14T19:51:45.046Z,13.38
2022-11-14T19:57:53.110Z,19.42
2022-11-14T20:00:39.015Z,18.45
2022-11-14T20:03:52.398Z,18.00
2022-11-14T20:06:47.169Z,15.52
2022-11-14T20:09:32.884Z,12.02
2022-11-14T20:12:21.886Z,13.57
2022-11-14T20:15:08.409Z,13.20
2022-11-14T20:17:54.305Z,15.55
2022-11-14T20:20:40.243Z,12.30
2022-11-14T20:23:26.864Z,15.00
2022-11-14T20:26:14.945Z,16.02
2022-11-14T20:29:00.956Z,11.07
2022-11-14T20:31:46.816Z,14.57
2022-11-14T20:34:32.656Z,10.55
2022-11-14T20:37:18.604Z,13.90
2022-11-14T20:40:05.254Z,14.10
2022-11-14T20:42:51.064Z,12.57
2022-11-14T20:45:37.212Z,12.70
2022-11-14T20:48:23.924Z,13.18
2022-11-14T20:51:14.240Z,11.55
2022-11-14T20:53:59.914Z,15.10
2022-11-14T20:56:45.606Z,13.85
2022-11-14T20:59:31.375Z,14.05
2022-11-14T21:02:17.636Z,15.52
2022-11-14T21:05:03.678Z,15.13
2022-11-14T21:07:49.516Z,17.30
2022-11-14T21:10:45.895Z,12.70
2022-11-14T21:13:53.890Z,12.65
2022-11-14T21:16:40.284Z,14.05
2022-11-14T21:19:26.665Z,13.25
2022-11-14T21:22:13.484Z,14.40
2022-11-14T21:24:59.374Z,14.88
2022-11-14T21:27:45.275Z,15.38
2022-11-14T21:30:32.454Z,16.60
2022-11-14T21:33:18.256Z,15.65
2022-11-14T21:36:30.029Z,14.95
2022-11-14T21:39:16.851Z,16.48
2022-11-14T21:42:03.727Z,14.23
2022-11-14T21:44:49.742Z,14.75
2022-11-14T21:47:35.835Z,10.70
2022-11-14T21:50:21.714Z,12.80
2022-11-14T21:53:16.159Z,14.05
2022-11-14T21:56:16.721Z,12.65
2022-11-14T21:59:14.084Z,14.93
2022-11-14T22:02:18.295Z,15.18
2022-11-14T22:05:04.585Z,12.25
2022-11-14T22:07:50.135Z,19.98
2022-11-14T22:10:36.015Z,15.77
2022-11-14T22:13:21.888Z,9.18
2022-11-14T22:16:09.546Z,12.43
2022-11-14T22:19:00.491Z,11.45
2022-11-14T22:21:50.545Z,15.57
2022-11-14T22:24:36.469Z,10.82
2022-11-14T22:27:22.645Z,15.57
2022-11-14T22:30:09.105Z,12.85
2022-11-14T22:32:55.196Z,13.60
2022-11-14T22:35:41.255Z,9.63
2022-11-14T22:38:32.837Z,12.38
2022-11-14T22:41:20.987Z,18.38
2022-11-14T22:44:06.946Z,15.05
2022-11-14T22:46:52.937Z,13.43
2022-11-14T22:49:38.844Z,12.73
2022-11-14T22:52:24.918Z,14.35
2022-11-14T22:55:16.687Z,14.35
2022-11-14T22:58:03.881Z,13.75
2022-11-14T23:00:51.885Z,12.68
2022-11-14T23:03:38.365Z,15.20
2022-11-14T23:06:25.235Z,16.73
2022-11-14T23:09:10.966Z,12.85
2022-11-14T23:11:56.925Z,19.70
2022-11-14T23:14:42.778Z,12.52
2022-11-14T23:17:28.894Z,16.17
2022-11-14T23:20:16.629Z,15.27
2022-11-14T23:23:03.575Z,12.43
2022-11-14T23:25:49.302Z,15.55
2022-11-14T23:28:36.073Z,13.45
2022-11-14T23:31:22.031Z,13.70
2022-11-14T23:34:08.137Z,17.33
2022-11-14T23:36:54.053Z,13.30
2022-11-14T23:39:39.804Z,14.68
2022-11-14T23:42:27.072Z,12.30
2022-11-14T23:45:13.153Z,13.05
2022-11-14T23:47:59.066Z,12.88
2022-11-14T23:50:49.105Z,15.65
2022-11-14T23:53:34.831Z,11.68
2022-11-14T23:56:20.710Z,14.95
2022-11-14T23:59:06.990Z,10.70
